YMML/MEL METAR and TAF weather

Enter ICAO airport designator
Station Type Date Time Source
YMML METAR 2021/07/24 21:00 UTC NOAA

YMML 242100Z 29009KT CAVOK 05/M00 Q1002


Station Type Date Time Source
YMML Decoded METAR 2021/07/24 21:00 UTC NOAA

Melbourne Airport, Australia (YMML) 37-40S 144-50E 141M
Jul 24, 2021 - 05:00 PM EDT / 2021.07.24 2100 UTC
Wind: from the WNW (290 degrees) at 10 MPH (9 KT):0
Visibility: greater than 7 mile(s):0
Temperature: 41 F (5 C)
Dew Point: 32 F (0 C)
Relative Humidity: 70%
Pressure (altimeter): 29.59 in. Hg (1002 hPa)
ob: YMML 242100Z 29009KT CAVOK 05/M00 Q1002
cycle: 21

Station Type Date Time Source
YMML TAF 2021/07/24 21:49 UTC NOAA

TAF YMML 242013Z 2421/2600 30018G28KT 9999 SCT040
FM250500 34014G25KT 9999 -SHRA SCT030 BKN050
FM250900 29014KT 9999 -SHRA SCT025 BKN035
FM251200 30012KT 9999 NSW SCT030 INTER 2505/2509 29025G40KT 4000 SHRA SCT015

Example: see airport list